• Join FlightAware (Why Join?)
  • Login
  • US Flag 
12:16PM EDT


 

Airport Tracker/Info


-or-


 

Live Flight TrackerFlight Track Log ✈ UAL335 ✈ 25-Apr-2013 ✈ KSMF - KDEN

Flight Track Log - Related Links

Times and Time Zones

All times are in EDT time to prevent confusion due to time zone crossing. See the UAL335 flight status page for this flight to view local times or setup timezone preferences in your user account.

Time Position Orientation Groundspeed Altitude Reporting Facility
EDT Latitude Longitude Course Direction KTS MPH feet Rate Location/Type
08:38AM 38.6500 -121.5500 78° East 177 204 2,100  Level Northern Cal TRACON
08:39AM 38.6333 -121.4833 108° East 230 265 4,000 2,280 Climbing Northern Cal TRACON
08:40AM 38.4922 -121.2877 80° East  Level FlightAware Approximate
08:40AM 38.6333 -121.4167 90° East 266 306 6,300  Level Northern Cal TRACON
08:41AM 38.5250 -121.1417 76° East  Level FlightAware Approximate
08:42AM 38.5539 -120.9935 78° East  Level FlightAware Approximate
08:42AM 38.6328 -121.1592 90° East 335 386 12,500  Level Oakland Center
08:43AM 38.5789 -120.8441 78° East  Level FlightAware Approximate
08:43AM 38.6317 -121.0328 91° East 349 402 15,400  Level Oakland Center
08:44AM 38.6303 -120.9039 91° East 359 413 18,100 2,460 Climbing Oakland Center
08:45AM 38.6294 -120.7719 90° East 368 423 20,400 2,160 Climbing Oakland Center
08:46AM 38.6278 -120.6364 91° East 377 434 22,500 1,920 Climbing Oakland Center
08:47AM 38.6256 -120.4981 91° East 386 444 24,300 1,680 Climbing Oakland Center
08:48AM 38.6258 -120.3569 90° East 393 452 25,900 1,440 Climbing Oakland Center
08:49AM 38.6242 -120.2122 91° East 405 466 27,200 1,320 Climbing Oakland Center
08:50AM 38.6278 -120.0608 88° East 423 487 28,600 1,380 Climbing Oakland Center
08:51AM 38.6283 -119.9103 90° East 425 489 30,100 1,200 Climbing Oakland Center
08:52AM 38.6303 -119.7561 89° East 432 497 31,100 1,140 Climbing Oakland Center
08:53AM 38.6314 -119.5986 89° East 442 509 32,400 1,140 Climbing Oakland Center
08:54AM 38.6347 -119.4458 88° East 437 503 33,500 1,080 Climbing Oakland Center
08:55AM 38.6361 -119.2903 89° East 438 504 34,600 1,080 Climbing Oakland Center
08:56AM 38.6375 -119.1303 89° East 447 514 35,700 900 Climbing Oakland Center
08:57AM 38.6397 -118.9414 89° East 447 514 36,400 600 Climbing Oakland Center
08:58AM 38.6411 -118.7819 89° East 450 518 37,000 240 Climbing Oakland Center
08:59AM 38.6419 -118.6231 90° East 450 518 37,000  Level Oakland Center
09:00AM 38.6431 -118.4625 89° East 453 521 37,000  Level Oakland Center
09:01AM 38.6433 -118.3011 90° East 455 524 37,000  Level Oakland Center
09:02AM 38.6439 -118.1394 90° East 456 525 37,000  Level Oakland Center
09:03AM 38.6442 -118.0000 90° East 455 524 37,000  Level Oakland Center
09:04AM 38.6436 -117.8386 90° East 454 522 37,000  Level Oakland Center
09:05AM 38.6433 -117.6756 90° East 455 524 37,000  Level Oakland Center
09:06AM 38.6422 -117.5131 90° East 454 522 37,000  Level Oakland Center
09:07AM 38.6417 -117.3497 90° East 457 526 37,000  Level Salt Lake Center
09:08AM 38.6406 -117.1858 90° East 457 526 37,000  Level Salt Lake Center
09:09AM 38.6381 -117.0203 91° East 461 531 37,000  Level Salt Lake Center
09:10AM 38.6369 -116.8544 90° East 464 534 37,100  Climbing Oakland Center
09:11AM 38.6358 -116.6911 90° East 460 529 37,000 -60 Descending Oakland Center
09:12AM 38.6336 -116.5261 91° East 461 531 37,000  Level Salt Lake Center
09:13AM 38.6311 -116.3631 91° East 459 528 37,000  Level Salt Lake Center
09:14AM 38.6289 -116.1983 91° East 461 531 37,000  Level Salt Lake Center
09:15AM 38.6256 -116.0328 91° East 465 535 37,000  Level Salt Lake Center
09:16AM 38.6233 -115.8667 91° East 467 537 37,000  Level Salt Lake Center
09:17AM 38.6194 -115.7008 92° East 466 536 37,000  Level Salt Lake Center
09:18AM 38.6161 -115.5344 91° East 467 537 37,000  Level Salt Lake Center
09:19AM 38.6133 -115.3700 91° East 465 535 37,000  Level Salt Lake Center
09:20AM 38.6103 -115.1947 91° East 467 537 37,000  Level Salt Lake Center
09:21AM 38.6058 -115.0167 92° East 468 539 37,000  Level Salt Lake Center
09:22AM 38.6019 -114.8517 92° East 466 536 37,000  Level Salt Lake Center
09:23AM 38.5969 -114.6856 92° East 467 537 37,000  Level Salt Lake Center
09:24AM 38.5917 -114.5203 92° East 466 536 37,000  Level Salt Lake Center
09:25AM 38.5869 -114.3544 92° East 468 539 37,000  Level Salt Lake Center
09:26AM 38.5822 -114.1878 92° East 469 540 37,000  Level Salt Lake Center
09:27AM 38.5775 -114.0208 92° East 469 540 37,000  Level Salt Lake Center
09:29AM 38.5717 -113.8544 93° East 470 541 37,000  Level Salt Lake Center
09:30AM 38.5653 -113.6883 93° East 468 539 37,000  Level Salt Lake Center
09:31AM 38.5575 -113.4925 93° East 462 532 37,000  Level Salt Lake Center
09:32AM 38.5514 -113.3283 93° East 463 533 37,000  Level Salt Lake Center
09:33AM 38.5453 -113.1611 93° East 467 537 37,000  Level Salt Lake Center
09:34AM 38.5378 -112.9953 93° East 468 539 37,000  Level Salt Lake Center
09:35AM 38.5308 -112.8303 93° East 466 536 37,000  Level Salt Lake Center
09:36AM 38.5231 -112.6647 93° East 466 536 37,000  Level Salt Lake Center
09:37AM 38.5147 -112.4964 94° East 472 543 37,000  Level Salt Lake Center
09:38AM 38.5075 -112.3275 93° East 476 548 37,000  Level Salt Lake Center
09:39AM 38.4994 -112.1600 93° East 474 545 37,000  Level Salt Lake Center
09:40AM 38.4900 -111.9925 94° East 473 544 37,000  Level Salt Lake Center
09:41AM 38.4825 -111.8258 93° East 473 544 37,000  Level Salt Lake Center
09:42AM 38.4731 -111.6575 94° East 476 548 37,000  Level Salt Lake Center
09:43AM 38.4625 -111.4556 94° East 476 548 37,000  Level Salt Lake Center
09:44AM 38.4533 -111.2872 94° East 476 548 37,000  Level Salt Lake Center
09:45AM 38.4428 -111.1189 95° East 477 549 37,000  Level Salt Lake Center
09:46AM 38.4336 -110.9522 94° East 474 545 37,000  Level Salt Lake Center
09:47AM 38.4217 -110.7778 95° East 475 547 37,000  Level Salt Lake Center
09:48AM 38.4183 -110.6156 91° East 479 551 37,000  Level Salt Lake Center
09:49AM 38.4219 -110.4525 88° East 480 552 37,000  Level Denver Center
09:50AM 38.4278 -110.2633 88° East 481 554 37,000  Level Salt Lake Center
09:51AM 38.4278 -110.1244 90° East 485 558 37,000  Level Denver Center
09:52AM 38.4322 -109.9317 88° East 488 562 37,000  Level Denver Center
09:53AM 38.4353 -109.7650 89° East 492 566 37,000  Level Denver Center
09:54AM 38.4381 -109.5994 89° East 491 565 37,000  Level Denver Center
09:55AM 38.4403 -109.4061 89° East 491 565 37,000  Level Denver Center
09:56AM 38.4422 -109.2347 89° East 500 575 37,000  Level Denver Center
09:57AM 38.4450 -109.0358 89° East 504 580 37,000  Level Denver Center
09:58AM 38.4467 -108.8658 89° East 501 577 37,000  Level Denver Center
09:59AM 38.4486 -108.6950 89° East 504 580 37,000  Level Denver Center
10:00AM 38.4489 -108.4964 90° East 502 578 37,000  Level Denver Center
10:01AM 38.4508 -108.3261 89° East 503 579 37,000  Level Denver Center
10:02AM 38.4517 -108.1253 90° East 506 582 37,000  Level Denver Center
10:03AM 38.4517 -107.9547 90° East 505 581 37,000  Level Denver Center
10:04AM 38.4508 -107.7842 90° East 504 580 37,000  Level Denver Center
10:05AM 38.4719 -107.5867 82° East 506 582 37,000 -480 Level Denver Center
10:06AM 38.5275 -107.4247 66° East 520 598 36,100 -1,020 Descending Denver Center
10:07AM 38.6081 -107.2461 60° Northeast 519 597 35,000 -1,140 Descending Denver Center
10:08AM 38.6675 -107.1122 60° Northeast 519 597 33,900 -1,260 Descending Denver Center
10:09AM 38.7467 -106.9339 60° Northeast 482 555 32,500 -1,260 Descending Denver Center
10:10AM 38.8092 -106.7906 61° Northeast 464 534 31,400 -1,200 Descending Denver Center
10:11AM 38.8758 -106.6386 61° Northeast 492 566 30,100 -1,320 Descending Denver Center
10:12AM 38.9542 -106.4731 59° Northeast 503 579 28,700 -1,320 Descending Denver Center
10:13AM 39.0225 -106.3244 59° Northeast 504 580 27,500 -1,200 Descending Denver Center
10:14AM 39.0892 -106.1783 60° Northeast 498 573 26,300 -1,860 Descending Denver Center
10:15AM 39.1644 -106.0078 60° Northeast 467 537 23,700 -2,280 Descending Denver Center
10:16AM 39.2247 -105.8678 61° Northeast 448 516 21,700 -1,860 Descending Denver Center
10:17AM 39.2842 -105.7347 60° Northeast 428 493 19,900 -1,620 Descending Denver Center
10:18AM 39.3397 -105.6069 61° Northeast 407 468 18,500 -1,200 Descending Denver Center
10:19AM 39.3836 -105.5047 61° Northeast 393 452 17,500 -1,260 Descending Denver Center
10:20AM 39.4011 -105.3483 82° East 360 414 16,000 -1,380 Descending Denver Center
10:21AM 39.4069 -105.2219 87° East 353 406 14,700 -1,140 Descending Denver Center
10:23AM 39.4125 -105.0997 87° East 339 390 13,700 -780 Descending Denver Center
10:24AM 39.4181 -104.9811 86° East 309 356 13,200 -1,020 Descending Denver Center
10:25AM 39.4467 -104.8853 69° East 293 337 11,500 -1,440 Descending Denver Center
10:26AM 39.5222 -104.8036 40° Northeast 288 331 10,000 -1,020 Descending Denver Center
10:27AM 39.6000 -104.7536 26° Northeast 287 330 9,400 -600 Descending Denver Center